createdAt,value
2018-09-15T00:00:59.698Z,99.99
2018-09-15T00:02:09.652Z,99.99
2018-09-15T00:03:19.605Z,99.99
2018-09-15T00:04:29.556Z,99.99
2018-09-15T00:05:39.514Z,99.99
2018-09-15T00:06:49.207Z,99.99
2018-09-15T00:07:59.158Z,99.99
2018-09-15T00:09:08.854Z,99.99
2018-09-15T00:10:18.820Z,99.99
2018-09-15T00:11:28.259Z,99.99
2018-09-15T00:12:37.970Z,99.99
2018-09-15T00:13:47.663Z,99.99
2018-09-15T00:14:57.384Z,99.99
2018-09-15T00:16:07.328Z,99.99
2018-09-15T00:17:16.771Z,99.99
2018-09-15T00:18:26.723Z,99.99
2018-09-15T00:19:36.672Z,99.99
2018-09-15T00:20:46.642Z,99.99
2018-09-15T00:21:56.331Z,99.99
2018-09-15T00:23:06.521Z,99.99
2018-09-15T00:24:16.878Z,99.99
2018-09-15T00:25:26.836Z,99.99
2018-09-15T00:26:36.802Z,99.99
2018-09-15T00:27:46.760Z,99.99
2018-09-15T00:28:56.713Z,99.99
2018-09-15T00:30:06.414Z,99.99
2018-09-15T00:31:16.102Z,99.99
2018-09-15T00:32:26.044Z,99.99
2018-09-15T00:33:35.779Z,99.99
2018-09-15T00:34:45.729Z,99.99
2018-09-15T00:35:55.410Z,99.99
2018-09-15T00:37:05.369Z,99.99
2018-09-15T00:38:15.323Z,99.99
2018-09-15T00:39:25.009Z,99.99
2018-09-15T00:40:34.696Z,99.99
2018-09-15T00:41:44.784Z,99.99
2018-09-15T00:42:55.159Z,99.99
2018-09-15T00:44:05.116Z,99.99
2018-09-15T00:45:15.017Z,99.99
2018-09-15T00:46:24.992Z,99.99
2018-09-15T00:47:34.935Z,99.99
2018-09-15T00:48:44.880Z,99.99
2018-09-15T00:49:54.851Z,99.99
2018-09-15T00:51:04.807Z,99.99
2018-09-15T00:52:14.767Z,99.99
2018-09-15T00:53:24.463Z,99.99
2018-09-15T00:54:34.147Z,99.99
2018-09-15T00:55:44.093Z,99.99
2018-09-15T00:56:53.777Z,99.99
2018-09-15T00:58:03.472Z,99.99
2018-09-15T00:59:13.155Z,99.99
2018-09-15T01:00:22.594Z,99.99
2018-09-15T01:01:32.565Z,99.99
2018-09-15T01:02:42.523Z,99.99
2018-09-15T01:03:52.210Z,99.99
2018-09-15T01:05:02.157Z,99.99
2018-09-15T01:06:12.106Z,99.99
2018-09-15T01:07:22.057Z,99.99
2018-09-15T01:08:32.009Z,99.99
2018-09-15T01:09:41.694Z,99.99
2018-09-15T01:10:51.639Z,99.99
2018-09-15T01:12:01.589Z,99.99
2018-09-15T01:13:11.266Z,99.99
2018-09-15T01:14:21.768Z,99.99
2018-09-15T01:15:31.636Z,99.99
2018-09-15T01:16:41.840Z,99.99
2018-09-15T01:17:51.529Z,99.99
2018-09-15T01:19:01.485Z,99.99
2018-09-15T01:20:11.282Z,99.99
2018-09-15T01:21:21.332Z,99.99
2018-09-15T01:22:31.282Z,99.99
2018-09-15T01:23:40.976Z,99.99
2018-09-15T01:24:50.930Z,99.99
2018-09-15T01:26:01.018Z,99.99
2018-09-15T01:27:11.262Z,99.99
2018-09-15T01:28:21.225Z,99.99
2018-09-15T01:29:31.164Z,99.99
2018-09-15T01:30:40.853Z,99.99
2018-09-15T01:31:50.558Z,99.99
2018-09-15T01:33:00.517Z,99.99
2018-09-15T01:34:10.205Z,99.99
2018-09-15T01:35:20.156Z,99.99
2018-09-15T01:36:29.828Z,99.99
2018-09-15T01:37:39.509Z,99.99
2018-09-15T01:38:49.200Z,99.99
2018-09-15T01:39:59.200Z,99.99
2018-09-15T01:41:08.886Z,99.99
2018-09-15T01:42:18.829Z,99.99
2018-09-15T01:43:28.521Z,99.99
2018-09-15T01:44:38.251Z,99.99
2018-09-15T01:45:47.946Z,99.99
2018-09-15T01:46:57.892Z,99.99
2018-09-15T01:48:07.587Z,99.99
2018-09-15T01:49:17.273Z,99.99
2018-09-15T01:50:27.236Z,99.99
2018-09-15T01:51:37.180Z,99.99
2018-09-15T01:52:47.136Z,99.99
2018-09-15T01:53:57.077Z,99.99
2018-09-15T01:55:07.036Z,99.99
2018-09-15T01:56:16.743Z,99.99
2018-09-15T01:57:26.810Z,99.99
2018-09-15T01:58:37.130Z,99.99
2018-09-15T01:59:47.079Z,99.99
2018-09-15T02:00:57.026Z,99.99
2018-09-15T02:02:06.463Z,99.99
2018-09-15T02:03:16.163Z,99.99
2018-09-15T02:04:26.112Z,99.99
2018-09-15T02:05:36.065Z,99.99
2018-09-15T02:06:46.025Z,99.99
2018-09-15T02:07:55.998Z,99.99
2018-09-15T02:09:05.940Z,99.99
2018-09-15T02:10:15.630Z,99.99
2018-09-15T02:11:25.058Z,99.99
2018-09-15T02:12:35.018Z,99.99
2018-09-15T02:13:44.968Z,99.99
2018-09-15T02:14:54.650Z,99.99
2018-09-15T02:16:04.334Z,99.99
2018-09-15T02:17:14.284Z,99.99
2018-09-15T02:18:23.967Z,99.99
2018-09-15T02:19:33.917Z,99.99
2018-09-15T02:20:43.602Z,99.99
2018-09-15T02:21:53.553Z,99.99
2018-09-15T02:23:03.459Z,99.99
2018-09-15T02:24:13.665Z,99.99
2018-09-15T02:25:23.611Z,99.99
2018-09-15T02:26:33.299Z,99.99
2018-09-15T02:27:43.256Z,99.99
2018-09-15T02:28:53.045Z,99.99
2018-09-15T02:30:03.310Z,99.99
2018-09-15T02:31:13.269Z,99.99
2018-09-15T02:32:23.276Z,99.99
2018-09-15T02:33:33.266Z,99.99
2018-09-15T02:34:43.212Z,99.99
2018-09-15T02:35:53.168Z,99.99
2018-09-15T02:37:02.856Z,99.99
2018-09-15T02:38:12.822Z,99.99
2018-09-15T02:39:22.237Z,99.99
2018-09-15T02:40:32.162Z,99.99
2018-09-15T02:41:41.851Z,99.99
2018-09-15T02:42:51.801Z,99.99
2018-09-15T02:44:01.748Z,99.99
2018-09-15T02:45:11.708Z,99.99
2018-09-15T02:46:21.657Z,99.99
2018-09-15T02:47:31.595Z,99.99
2018-09-15T02:48:41.289Z,99.99
2018-09-15T02:49:51.230Z,99.99
2018-09-15T02:51:01.178Z,99.99
2018-09-15T02:52:11.147Z,99.99
2018-09-15T02:53:20.847Z,99.99
2018-09-15T02:54:30.795Z,99.99
2018-09-15T02:55:40.867Z,99.99
2018-09-15T02:56:50.830Z,99.99
2018-09-15T02:58:00.515Z,99.99
2018-09-15T02:59:10.226Z,99.99
2018-09-15T03:00:20.180Z,99.99
2018-09-15T03:01:29.609Z,99.99
2018-09-15T03:02:39.566Z,99.99
2018-09-15T03:03:49.512Z,99.99
2018-09-15T03:04:59.456Z,99.99
2018-09-15T03:06:09.149Z,99.99
2018-09-15T03:07:19.106Z,99.99
2018-09-15T03:08:29.121Z,99.99
2018-09-15T03:09:39.076Z,99.99
2018-09-15T03:10:49.196Z,99.99
2018-09-15T03:11:59.645Z,99.99
2018-09-15T03:13:09.594Z,99.99
2018-09-15T03:14:19.550Z,99.99
2018-09-15T03:15:29.522Z,99.99
2018-09-15T03:16:39.489Z,99.99
2018-09-15T03:17:49.185Z,99.99
2018-09-15T03:18:59.133Z,99.99
2018-09-15T03:20:09.085Z,99.99
2018-09-15T03:21:19.041Z,99.99
2018-09-15T03:22:28.730Z,99.99
2018-09-15T03:23:38.676Z,99.99
2018-09-15T03:24:48.359Z,99.99
2018-09-15T03:25:58.297Z,99.99
2018-09-15T03:27:07.981Z,99.99
2018-09-15T03:28:17.925Z,99.99
2018-09-15T03:29:27.861Z,99.99
2018-09-15T03:30:37.819Z,99.99
2018-09-15T03:31:47.877Z,99.99
2018-09-15T03:32:57.595Z,99.99
2018-09-15T03:34:07.301Z,99.99
2018-09-15T03:35:17.232Z,99.99
2018-09-15T03:36:26.923Z,99.99
2018-09-15T03:37:36.602Z,99.99
2018-09-15T03:38:46.555Z,99.99
2018-09-15T03:39:56.506Z,99.99
2018-09-15T03:41:06.213Z,99.99
2018-09-15T03:42:15.902Z,99.99
2018-09-15T03:43:25.859Z,99.99
2018-09-15T03:44:35.826Z,99.99
2018-09-15T03:45:45.533Z,99.99
2018-09-15T03:46:55.463Z,99.99
2018-09-15T03:48:05.152Z,99.99
2018-09-15T03:49:15.091Z,99.99
2018-09-15T03:50:25.041Z,99.99
2018-09-15T03:51:34.987Z,99.99
2018-09-15T03:52:44.961Z,99.99
2018-09-15T03:53:54.927Z,99.99
2018-09-15T03:55:04.865Z,99.99
2018-09-15T03:56:14.804Z,99.99
2018-09-15T03:57:24.751Z,99.99
2018-09-15T03:58:34.175Z,99.99
2018-09-15T03:59:44.140Z,99.99
2018-09-15T04:00:54.155Z,99.99
2018-09-15T04:02:04.137Z,99.99
2018-09-15T04:03:13.827Z,99.99
2018-09-15T04:04:23.771Z,99.99
2018-09-15T04:05:33.721Z,99.99
2018-09-15T04:06:43.403Z,99.99
2018-09-15T04:07:53.103Z,99.99
2018-09-15T04:09:03.057Z,99.99
2018-09-15T04:10:12.996Z,99.99
2018-09-15T04:11:22.962Z,99.99
2018-09-15T04:12:32.689Z,99.99
2018-09-15T04:13:42.386Z,99.99
2018-09-15T04:14:52.339Z,99.99
2018-09-15T04:16:02.027Z,99.99
2018-09-15T04:17:11.972Z,99.99
2018-09-15T04:18:21.922Z,99.99
2018-09-15T04:19:31.879Z,99.99
2018-09-15T04:20:41.830Z,99.99
2018-09-15T04:21:51.269Z,99.99
2018-09-15T04:23:01.216Z,99.99
2018-09-15T04:24:10.664Z,99.99
2018-09-15T04:25:20.371Z,99.99
2018-09-15T04:26:30.342Z,99.99
2018-09-15T04:27:40.280Z,99.99
2018-09-15T04:28:50.241Z,99.99
2018-09-15T04:30:00.206Z,99.99
2018-09-15T04:31:09.906Z,99.99
2018-09-15T04:32:19.871Z,99.99
2018-09-15T04:33:29.806Z,99.99
2018-09-15T04:34:39.488Z,99.99
2018-09-15T04:35:49.442Z,99.99
2018-09-15T04:36:59.409Z,99.99
2018-09-15T04:38:09.183Z,99.99
2018-09-15T04:39:19.132Z,99.99
2018-09-15T04:40:29.087Z,99.99
2018-09-15T04:41:39.138Z,99.99
2018-09-15T04:42:49.478Z,99.99
2018-09-15T04:43:59.419Z,99.99
2018-09-15T04:45:09.374Z,99.99
2018-09-15T04:46:19.074Z,99.99
2018-09-15T04:47:28.765Z,99.99
2018-09-15T04:48:38.723Z,99.99
2018-09-15T04:49:48.675Z,99.99
2018-09-15T04:50:58.622Z,99.99
2018-09-15T04:52:08.332Z,99.99
2018-09-15T04:53:18.020Z,99.99
2018-09-15T04:54:27.985Z,99.99
2018-09-15T04:55:37.928Z,99.99
2018-09-15T04:56:47.658Z,99.99
2018-09-15T04:57:57.614Z,99.99
2018-09-15T04:59:07.554Z,99.99
2018-09-15T05:00:17.504Z,99.99
2018-09-15T05:01:27.465Z,99.99
2018-09-15T05:02:37.414Z,99.99
2018-09-15T05:03:47.360Z,99.99
2018-09-15T05:04:57.309Z,99.99
2018-09-15T05:06:07.019Z,99.99
2018-09-15T05:07:16.988Z,99.99
2018-09-15T05:08:26.934Z,99.99
2018-09-15T05:09:36.361Z,99.99
2018-09-15T05:10:46.299Z,99.99
2018-09-15T05:11:56.248Z,99.99
2018-09-15T05:13:06.200Z,99.99
2018-09-15T05:14:16.148Z,99.99
2018-09-15T05:15:25.856Z,99.99
2018-09-15T05:16:35.544Z,99.99
2018-09-15T05:17:45.530Z,99.99
2018-09-15T05:18:55.527Z,99.99
2018-09-15T05:20:05.481Z,99.99
2018-09-15T05:21:15.436Z,99.99
2018-09-15T05:22:25.128Z,99.99
2018-09-15T05:23:34.830Z,99.99
2018-09-15T05:24:44.547Z,99.99
2018-09-15T05:25:54.504Z,99.99
2018-09-15T05:27:04.193Z,99.99
2018-09-15T05:28:14.149Z,99.99
2018-09-15T05:29:24.085Z,99.99
2018-09-15T05:30:34.021Z,99.99
2018-09-15T05:31:44.047Z,99.99
2018-09-15T05:32:54.015Z,99.99
2018-09-15T05:34:03.703Z,99.99
2018-09-15T05:35:13.149Z,99.99
2018-09-15T05:36:23.095Z,99.99
2018-09-15T05:37:32.790Z,99.99
2018-09-15T05:38:42.500Z,99.99
2018-09-15T05:39:52.618Z,99.99
2018-09-15T05:41:02.160Z,99.99
2018-09-15T05:42:12.119Z,99.99
2018-09-15T05:43:22.067Z,99.99
2018-09-15T05:44:32.020Z,99.99
2018-09-15T05:45:41.962Z,99.99
2018-09-15T05:46:51.638Z,99.99
2018-09-15T05:48:01.593Z,99.99
2018-09-15T05:49:11.298Z,99.99
2018-09-15T05:50:21.258Z,99.99
2018-09-15T05:51:31.230Z,99.99
2018-09-15T05:52:41.195Z,99.99
2018-09-15T05:53:51.156Z,99.99
2018-09-15T05:55:00.855Z,99.99
2018-09-15T05:56:10.768Z,99.99
2018-09-15T05:57:20.895Z,99.99
2018-09-15T05:58:30.642Z,99.99
2018-09-15T05:59:40.608Z,99.99
2018-09-15T06:00:50.557Z,99.8
2018-09-15T06:02:00.531Z,99.99
2018-09-15T06:03:10.473Z,99.23
2018-09-15T06:04:20.253Z,98.94
2018-09-15T06:05:30.197Z,98.47
2018-09-15T06:06:40.245Z,98.47
2018-09-15T06:07:50.641Z,98.18
2018-09-15T06:09:00.625Z,97.99
2018-09-15T06:10:10.590Z,98.08
2018-09-15T06:11:20.027Z,98.08
2018-09-15T06:12:29.980Z,97.99
2018-09-15T06:13:39.994Z,97.8
2018-09-15T06:14:50.252Z,97.18
2018-09-15T06:16:00.207Z,97.18
2018-09-15T06:17:10.145Z,97.18
2018-09-15T06:18:19.836Z,96.27
2018-09-15T06:19:29.796Z,96.03
2018-09-15T06:20:39.760Z,95.75
2018-09-15T06:21:49.712Z,94.51
2018-09-15T06:22:59.659Z,94.51
2018-09-15T06:24:09.363Z,94.41
2018-09-15T06:25:19.351Z,94.6
2018-09-15T06:26:29.054Z,94.41
2018-09-15T06:27:39.000Z,93.84
2018-09-15T06:28:49.050Z,93.55
2018-09-15T06:29:59.012Z,93.16
2018-09-15T06:31:09.054Z,93.12
2018-09-15T06:32:19.001Z,92.74
2018-09-15T06:33:28.953Z,92.74
2018-09-15T06:34:38.383Z,92.07
2018-09-15T06:35:48.345Z,91.88
2018-09-15T06:36:58.292Z,91.97
2018-09-15T06:38:08.243Z,91.68
2018-09-15T06:39:18.230Z,91.97
2018-09-15T06:40:28.097Z,91.49
2018-09-15T06:41:38.050Z,91.02
2018-09-15T06:42:48.024Z,90.73
2018-09-15T06:43:57.711Z,90.82
2018-09-15T06:45:07.399Z,90.25
2018-09-15T06:46:17.354Z,90.06
2018-09-15T06:47:27.309Z,90.82
2018-09-15T06:48:36.999Z,90.16
2018-09-15T06:49:46.971Z,90.16
2018-09-15T06:50:56.920Z,90.06
2018-09-15T06:52:06.620Z,89.77
2018-09-15T06:53:16.576Z,90.06
2018-09-15T06:54:26.285Z,89.72
2018-09-15T06:55:36.253Z,89.91
2018-09-15T06:56:46.193Z,89.15
2018-09-15T06:57:55.904Z,89.24
2018-09-15T06:59:05.874Z,88.86
2018-09-15T07:00:15.845Z,88.95
2018-09-15T07:01:25.825Z,88.67
2018-09-15T07:02:35.799Z,88.67
2018-09-15T07:03:45.757Z,88.57
2018-09-15T07:04:55.471Z,87.52
2018-09-15T07:06:05.428Z,88.19
2018-09-15T07:07:15.375Z,87.52
2018-09-15T07:08:25.357Z,88
2018-09-15T07:09:35.333Z,88.09
2018-09-15T07:10:45.028Z,87.04
2018-09-15T07:11:54.971Z,86.18
2018-09-15T07:13:05.186Z,87.04
2018-09-15T07:14:15.251Z,87.23
2018-09-15T07:15:24.957Z,86.94
2018-09-15T07:16:34.663Z,86.57
2018-09-15T07:17:44.624Z,87.04
2018-09-15T07:18:54.572Z,86.13
2018-09-15T07:20:04.343Z,86.04
2018-09-15T07:21:14.114Z,86.41
2018-09-15T07:22:24.062Z,85.94
2018-09-15T07:23:34.027Z,85.55
2018-09-15T07:24:43.977Z,85.75
2018-09-15T07:25:54.130Z,85.84
2018-09-15T07:27:04.472Z,85.27
2018-09-15T07:28:14.163Z,85.17
2018-09-15T07:29:23.854Z,84.83
2018-09-15T07:30:33.827Z,84.69
2018-09-15T07:31:43.832Z,83.59
2018-09-15T07:32:53.742Z,84.02
2018-09-15T07:34:03.700Z,83.87
2018-09-15T07:35:13.646Z,83.87
2018-09-15T07:36:23.347Z,83.93
2018-09-15T07:37:33.388Z,84.12
2018-09-15T07:38:43.725Z,83.45
2018-09-15T07:39:53.667Z,83.39
2018-09-15T07:41:03.621Z,83.36
2018-09-15T07:42:13.794Z,83.49
2018-09-15T07:43:23.509Z,82.92
2018-09-15T07:44:32.949Z,82.73
2018-09-15T07:45:42.981Z,81.86
2018-09-15T07:46:52.944Z,81.96
2018-09-15T07:48:02.407Z,81.67
2018-09-15T07:49:12.353Z,82.06
2018-09-15T07:50:22.311Z,81.48
2018-09-15T07:51:32.299Z,80.52
2018-09-15T07:52:42.614Z,80.14
2018-09-15T07:53:52.556Z,79.95
2018-09-15T07:55:02.512Z,79.85
2018-09-15T07:56:12.464Z,79.08
2018-09-15T07:57:22.252Z,79.85
2018-09-15T07:58:32.598Z,79.85
2018-09-15T07:59:42.562Z,79.08
2018-09-15T08:00:52.515Z,78.61
2018-09-15T08:02:02.572Z,78.93
2018-09-15T08:03:12.421Z,79.13
2018-09-15T08:04:22.389Z,79.13
2018-09-15T08:05:32.357Z,78.55
2018-09-15T08:06:42.314Z,78.36
2018-09-15T08:07:52.283Z,78.36
2018-09-15T08:09:02.254Z,78.84
2018-09-15T08:10:12.219Z,77.97
2018-09-15T08:11:21.925Z,78.45
2018-09-15T08:12:31.895Z,77.97
2018-09-15T08:13:41.603Z,77.88
2018-09-15T08:14:51.561Z,76.92
2018-09-15T08:16:01.256Z,76.67
2018-09-15T08:17:10.963Z,76.19
2018-09-15T08:18:20.947Z,76.1
2018-09-15T08:19:30.920Z,75.33
2018-09-15T08:20:41.042Z,74.12
2018-09-15T08:21:50.334Z,74.6
2018-09-15T08:23:00.297Z,74.12
2018-09-15T08:24:10.260Z,73.26
2018-09-15T08:25:20.216Z,72.59
2018-09-15T08:26:30.291Z,72.72
2018-09-15T08:27:40.579Z,72.05
2018-09-15T08:28:50.659Z,71.92
2018-09-15T08:30:00.613Z,71.57
2018-09-15T08:31:10.319Z,71.76
2018-09-15T08:32:20.282Z,71.47
2018-09-15T08:33:30.265Z,71.57
2018-09-15T08:34:40.232Z,70.9
2018-09-15T08:35:50.403Z,70.99
2018-09-15T08:37:00.104Z,70.9
2018-09-15T08:38:10.086Z,70.32
2018-09-15T08:39:19.543Z,70.03
2018-09-15T08:40:29.245Z,70.32
2018-09-15T08:41:39.199Z,70.32
2018-09-15T08:42:48.911Z,69.46
2018-09-15T08:43:58.863Z,69.84
2018-09-15T08:45:08.813Z,69.93
2018-09-15T08:46:18.776Z,70.23
2018-09-15T08:47:28.726Z,70.23
2018-09-15T08:48:38.447Z,69.17
2018-09-15T08:49:48.412Z,68.3
2018-09-15T08:50:58.133Z,68.24
2018-09-15T08:52:08.104Z,68.53
2018-09-15T08:53:17.541Z,67.96
2018-09-15T08:54:27.249Z,68.05
2018-09-15T08:55:36.928Z,67.47
2018-09-15T08:56:46.637Z,67.57
2018-09-15T08:57:56.076Z,66.9
2018-09-15T08:59:05.789Z,67.47
2018-09-15T09:00:15.797Z,67.67
2018-09-15T09:01:25.503Z,67.09
2018-09-15T09:02:35.205Z,66.8
2018-09-15T09:03:45.261Z,67.09
2018-09-15T09:04:55.682Z,66.46
2018-09-15T09:06:05.668Z,66.26
2018-09-15T09:07:15.369Z,65.2
2018-09-15T09:08:25.089Z,65.14
2018-09-15T09:09:35.066Z,64.18
2018-09-15T09:10:45.025Z,64.18
2018-09-15T09:11:54.992Z,63.99
2018-09-15T09:13:04.973Z,64.09
2018-09-15T09:14:14.437Z,63.79
2018-09-15T09:15:24.147Z,63.64
2018-09-15T09:16:34.110Z,62.96
2018-09-15T09:17:43.880Z,63.35
2018-09-15T09:18:53.582Z,62.58
2018-09-15T09:20:03.807Z,62.03
2018-09-15T09:21:13.523Z,62.41
2018-09-15T09:22:23.476Z,63.09
2018-09-15T09:23:32.940Z,63.25
2018-09-15T09:24:42.900Z,62.87
2018-09-15T09:25:52.557Z,62.61
2018-09-15T09:27:02.971Z,62.23
2018-09-15T09:28:12.957Z,62.96
2018-09-15T09:29:22.681Z,64.4
2018-09-15T09:30:32.422Z,64.79
2018-09-15T09:31:42.377Z,65.08
2018-09-15T09:32:52.073Z,64.95
2018-09-15T09:34:01.783Z,64.98
2018-09-15T09:35:11.257Z,63.45
2018-09-15T09:36:20.983Z,63.18
2018-09-15T09:37:30.961Z,62.23
2018-09-15T09:38:40.938Z,62.41
2018-09-15T09:39:50.655Z,62.03
2018-09-15T09:41:00.625Z,62.35
2018-09-15T09:42:10.353Z,62.06
2018-09-15T09:43:20.309Z,62.61
2018-09-15T09:44:30.014Z,62.71
2018-09-15T09:45:39.729Z,62.41
2018-09-15T09:46:49.420Z,62.35
2018-09-15T09:47:59.589Z,62.35
2018-09-15T09:49:09.526Z,62.16
2018-09-15T09:50:19.485Z,62.06
2018-09-15T09:51:29.454Z,61.49
2018-09-15T09:52:39.418Z,60.94
2018-09-15T09:53:49.392Z,60.94
2018-09-15T09:54:59.094Z,61.8
2018-09-15T09:56:08.795Z,61.71
2018-09-15T09:57:18.242Z,61.77
2018-09-15T09:58:28.214Z,62.45
2018-09-15T09:59:38.181Z,63.02
2018-09-15T10:00:48.143Z,63.18
2018-09-15T10:01:57.845Z,64.4
2018-09-15T10:03:07.810Z,64.6
2018-09-15T10:04:17.781Z,64.5
2018-09-15T10:05:27.751Z,64.5
2018-09-15T10:06:37.727Z,64.12
2018-09-15T10:07:47.477Z,64.15
2018-09-15T10:08:57.203Z,62.8
2018-09-15T10:10:06.993Z,63.09
2018-09-15T10:11:16.700Z,62.99
2018-09-15T10:12:26.668Z,63.28
2018-09-15T10:13:36.653Z,62.99
2018-09-15T10:14:46.630Z,63.02
2018-09-15T10:15:56.728Z,62.93
2018-09-15T10:17:07.004Z,62.54
2018-09-15T10:18:16.967Z,63.22
2018-09-15T10:19:26.664Z,63.28
2018-09-15T10:20:36.382Z,63.18
2018-09-15T10:21:46.133Z,61.87
2018-09-15T10:22:56.091Z,61.87
2018-09-15T10:24:06.276Z,62.32
2018-09-15T10:25:16.247Z,62.23
2018-09-15T10:26:25.964Z,61.97
2018-09-15T10:27:35.684Z,62.06
2018-09-15T10:28:45.666Z,61.68
2018-09-15T10:29:55.374Z,62.06
2018-09-15T10:31:05.340Z,62.32
2018-09-15T10:32:15.041Z,62.99
2018-09-15T10:33:24.736Z,63.09
2018-09-15T10:34:34.166Z,62.51
2018-09-15T10:35:44.123Z,62.9
2018-09-15T10:36:53.829Z,62.8
2018-09-15T10:38:03.806Z,62.8
2018-09-15T10:39:13.755Z,62.51
2018-09-15T10:40:23.856Z,62.13
2018-09-15T10:41:34.553Z,62.26
2018-09-15T10:42:44.258Z,60.81
2018-09-15T10:43:53.971Z,59.97
2018-09-15T10:45:03.683Z,59.2
2018-09-15T10:46:13.397Z,59.91
2018-09-15T10:47:23.383Z,59.33
2018-09-15T10:48:33.345Z,58.95
2018-09-15T10:49:43.309Z,59.33
2018-09-15T10:50:52.778Z,59.72
2018-09-15T10:52:02.742Z,59.23
2018-09-15T10:53:12.751Z,60.65
2018-09-15T10:54:22.451Z,61.87
2018-09-15T10:55:32.417Z,62.23
2018-09-15T10:56:42.576Z,62.51
2018-09-15T10:57:51.765Z,62.41
2018-09-15T10:59:01.487Z,62.23
2018-09-15T11:00:10.955Z,62.03
2018-09-15T11:01:21.058Z,61.97
2018-09-15T11:02:31.036Z,60.52
2018-09-15T11:03:41.060Z,60.72
2018-09-15T11:04:50.779Z,60.36
2018-09-15T11:06:00.908Z,59.04
2018-09-15T11:07:10.658Z,58.11
2018-09-15T11:08:20.614Z,57.05
2018-09-15T11:09:30.589Z,57.34
2018-09-15T11:10:40.558Z,57.43
2018-09-15T11:11:50.274Z,57.92
2018-09-15T11:12:59.971Z,57.62
2018-09-15T11:14:10.065Z,57.24
2018-09-15T11:15:19.774Z,56.47
2018-09-15T11:16:29.733Z,55.73
2018-09-15T11:17:39.170Z,55.92
2018-09-15T11:18:49.142Z,55.54
2018-09-15T11:19:59.111Z,55.73
2018-09-15T11:21:09.071Z,56.49
2018-09-15T11:22:18.791Z,56.66
2018-09-15T11:23:29.152Z,56.85
2018-09-15T11:24:39.127Z,56.76
2018-09-15T11:25:49.114Z,56.37
2018-09-15T11:26:59.083Z,56.27
2018-09-15T11:28:09.044Z,56.27
2018-09-15T11:29:19.241Z,56.76
2018-09-15T11:30:29.225Z,56.85
2018-09-15T11:31:39.208Z,56.57
2018-09-15T11:32:48.921Z,55.89
2018-09-15T11:33:59.012Z,56.79
2018-09-15T11:35:09.286Z,56.85
2018-09-15T11:36:18.760Z,56.66
2018-09-15T11:37:28.726Z,56.59
2018-09-15T11:38:38.726Z,55.73
2018-09-15T11:39:48.722Z,55.24
2018-09-15T11:40:58.692Z,54.79
2018-09-15T11:42:08.522Z,54.21
2018-09-15T11:43:18.482Z,54.24
2018-09-15T11:44:28.470Z,53.95
2018-09-15T11:45:38.457Z,54.5
2018-09-15T11:46:47.919Z,54.69
2018-09-15T11:47:58.196Z,55.73
2018-09-15T11:49:08.697Z,55.82
2018-09-15T11:50:18.687Z,56.4
2018-09-15T11:51:28.661Z,57.07
2018-09-15T11:52:38.383Z,57.24
2018-09-15T11:53:48.218Z,57.53
2018-09-15T11:54:58.560Z,57.82
2018-09-15T11:56:08.744Z,57.43
2018-09-15T11:57:18.706Z,58.2
2018-09-15T11:58:28.682Z,58.01
2018-09-15T11:59:38.402Z,58.01
2018-09-15T12:00:47.853Z,58.01
2018-09-15T12:01:57.641Z,57.92
2018-09-15T12:03:07.976Z,56.85
2018-09-15T12:04:17.685Z,57.92
2018-09-15T12:05:27.659Z,58.37
2018-09-15T12:06:37.354Z,58.37
2018-09-15T12:07:47.165Z,58.75
2018-09-15T12:08:57.432Z,58.08
2018-09-15T12:10:07.401Z,58.2
2018-09-15T12:11:17.129Z,57.92
2018-09-15T12:12:26.835Z,58.11
2018-09-15T12:13:36.519Z,58.17
2018-09-15T12:14:46.484Z,58.56
2018-09-15T12:15:56.648Z,57.98
2018-09-15T12:17:06.616Z,58.65
2018-09-15T12:18:16.592Z,58.75
2018-09-15T12:19:26.288Z,59.04
2018-09-15T12:20:36.247Z,59.69
2018-09-15T12:21:46.283Z,59.3
2018-09-15T12:22:56.117Z,59.4
2018-09-15T12:24:06.076Z,59.97
2018-09-15T12:25:16.015Z,60.65
2018-09-15T12:26:25.983Z,60.52
2018-09-15T12:27:35.703Z,60.62
2018-09-15T12:28:45.781Z,61.39
2018-09-15T12:29:55.506Z,60.52
2018-09-15T12:31:05.478Z,60.33
2018-09-15T12:32:15.456Z,59.75
2018-09-15T12:33:25.546Z,59.56
2018-09-15T12:34:35.825Z,59.56
2018-09-15T12:35:45.811Z,59.17
2018-09-15T12:36:55.793Z,58.92
2018-09-15T12:38:06.221Z,58.05
2018-09-15T12:39:16.284Z,58.27
2018-09-15T12:40:26.446Z,57.89
2018-09-15T12:41:36.409Z,57.31
2018-09-15T12:42:46.409Z,56.76
2018-09-15T12:43:56.113Z,55.6
2018-09-15T12:45:06.041Z,55.7
2018-09-15T12:46:16.599Z,55.41
2018-09-15T12:47:26.577Z,55.7
2018-09-15T12:48:36.559Z,54.64
2018-09-15T12:49:46.513Z,55.22
2018-09-15T12:50:55.965Z,53.77
2018-09-15T12:52:06.239Z,53.22
2018-09-15T12:53:16.445Z,52.64
2018-09-15T12:54:26.413Z,51.8
2018-09-15T12:55:36.406Z,51.51
2018-09-15T12:56:46.103Z,51.25
2018-09-15T12:57:56.300Z,51.7
2018-09-15T12:59:06.130Z,51.41
2018-09-15T13:00:16.119Z,51.41
2018-09-15T13:01:26.125Z,51.05
2018-09-15T13:02:36.104Z,51.25
2018-09-15T13:03:46.098Z,50.96
2018-09-15T13:04:55.806Z,51.03
2018-09-15T13:06:05.771Z,51.32
2018-09-15T13:07:15.526Z,50.93
2018-09-15T13:08:25.510Z,51.03
2018-09-15T13:09:35.217Z,50.74
2018-09-15T13:10:45.196Z,51
2018-09-15T13:11:54.629Z,50.71
2018-09-15T13:13:04.075Z,50.98
2018-09-15T13:14:14.037Z,51.65
2018-09-15T13:15:24.283Z,51.56
2018-09-15T13:16:34.662Z,52.33
2018-09-15T13:17:44.140Z,52.52
2018-09-15T13:18:54.095Z,52.33
2018-09-15T13:20:04.066Z,52.33
2018-09-15T13:21:14.031Z,52.33
2018-09-15T13:22:23.984Z,53
2018-09-15T13:23:33.999Z,52.81
2018-09-15T13:24:44.175Z,53.58
2018-09-15T13:25:54.135Z,53.45
2018-09-15T13:27:04.037Z,53.55
2018-09-15T13:28:14.015Z,54.13
2018-09-15T13:29:24.074Z,54.03
2018-09-15T13:30:33.776Z,54.42
2018-09-15T13:31:43.748Z,54.22
2018-09-15T13:32:53.473Z,54.13
2018-09-15T13:34:03.429Z,54.68
2018-09-15T13:35:13.456Z,55.16
2018-09-15T13:36:23.418Z,55.55
2018-09-15T13:37:33.385Z,55.35
2018-09-15T13:38:43.151Z,55.55
2018-09-15T13:39:52.849Z,55.74
2018-09-15T13:41:02.814Z,56.41
2018-09-15T13:42:12.792Z,56.6
2018-09-15T13:43:22.802Z,56.9
2018-09-15T13:44:32.766Z,56.41
2018-09-15T13:45:42.479Z,56.32
2018-09-15T13:46:52.653Z,56.8
2018-09-15T13:48:02.697Z,56.6
2018-09-15T13:49:12.657Z,56.7
2018-09-15T13:50:22.636Z,56.9
2018-09-15T13:51:32.346Z,57.09
2018-09-15T13:52:42.529Z,56.6
2018-09-15T13:53:52.488Z,57.18
2018-09-15T13:55:02.452Z,57.28
2018-09-15T13:56:12.448Z,56.9
2018-09-15T13:57:22.409Z,57.09
2018-09-15T13:58:32.117Z,56.6
2018-09-15T13:59:42.115Z,56.7
2018-09-15T14:00:51.559Z,55.55
2018-09-15T14:02:01.258Z,56.15
2018-09-15T14:03:11.224Z,55.38
2018-09-15T14:04:21.160Z,55.48
2018-09-15T14:05:31.118Z,55.45
2018-09-15T14:06:41.127Z,55.45
2018-09-15T14:07:51.121Z,55.48
2018-09-15T14:09:00.582Z,55.77
2018-09-15T14:10:10.273Z,55.67
2018-09-15T14:11:26.368Z,55.19
2018-09-15T14:12:36.338Z,55.29
2018-09-15T14:13:46.047Z,54.61
2018-09-15T14:14:56.008Z,54.52
2018-09-15T14:16:05.965Z,54.8
2018-09-15T14:17:15.795Z,54.71
2018-09-15T14:18:25.969Z,55.19
2018-09-15T14:19:35.932Z,55.09
2018-09-15T14:20:45.902Z,54.9
2018-09-15T14:21:55.877Z,54.61
2018-09-15T14:23:05.923Z,54.71
2018-09-15T14:24:15.950Z,54.8
2018-09-15T14:25:25.649Z,55
2018-09-15T14:26:35.620Z,54.52
2018-09-15T14:27:45.593Z,54.32
2018-09-15T14:28:55.295Z,54.71
2018-09-15T14:30:05.269Z,54.8
2018-09-15T14:31:14.983Z,55.29
2018-09-15T14:32:24.691Z,55
2018-09-15T14:33:34.664Z,55.16
2018-09-15T14:34:44.480Z,54.68
2018-09-15T14:35:54.001Z,54.97
2018-09-15T14:37:03.962Z,55.26
2018-09-15T14:38:13.672Z,55.74
2018-09-15T14:39:23.683Z,55.55
2018-09-15T14:40:33.663Z,55.74
2018-09-15T14:41:43.625Z,56.03
2018-09-15T14:42:53.595Z,56.03
2018-09-15T14:44:03.603Z,55.74
2018-09-15T14:45:13.689Z,55.74
2018-09-15T14:46:23.381Z,56.51
2018-09-15T14:47:33.334Z,56.7
2018-09-15T14:48:43.030Z,56.6
2018-09-15T14:49:52.733Z,56.32
2018-09-15T14:51:02.703Z,56.41
2018-09-15T14:52:12.670Z,56.8
2018-09-15T14:53:22.379Z,56.7
2018-09-15T14:54:32.334Z,56.41
2018-09-15T14:55:42.293Z,56.99
2018-09-15T14:56:52.254Z,56.51
2018-09-15T14:58:01.948Z,56.9
2018-09-15T14:59:11.925Z,56.58
2018-09-15T15:00:21.896Z,56.9
2018-09-15T15:01:31.637Z,56.7
2018-09-15T15:02:41.817Z,56.77